createdAt,value
2023-03-15T00:01:46.699Z,8.90
2023-03-15T00:04:16.119Z,8.90
2023-03-15T00:06:45.149Z,8.90
2023-03-15T00:09:16.859Z,8.90
2023-03-15T00:11:50.183Z,9.00
2023-03-15T00:14:21.138Z,8.70
2023-03-15T00:16:50.108Z,9.10
2023-03-15T00:19:18.711Z,9.10
2023-03-15T00:21:47.196Z,9.10
2023-03-15T00:24:15.974Z,9.10
2023-03-15T00:26:44.592Z,9.20
2023-03-15T00:29:13.127Z,9.20
2023-03-15T00:31:43.202Z,9.20
2023-03-15T00:34:14.123Z,9.20
2023-03-15T00:36:43.804Z,9.20
2023-03-15T00:39:15.882Z,9.20
2023-03-15T00:41:45.982Z,9.20
2023-03-15T00:44:14.926Z,9.30
2023-03-15T00:46:45.051Z,9.40
2023-03-15T00:49:17.487Z,9.50
2023-03-15T00:51:46.285Z,9.50
2023-03-15T00:54:15.168Z,9.70
2023-03-15T00:56:43.749Z,9.40
2023-03-15T00:59:12.637Z,8.90
2023-03-15T01:01:44.923Z,8.20
2023-03-15T01:04:15.585Z,7.70
2023-03-15T01:06:48.221Z,7.40
2023-03-15T01:09:16.754Z,7.00
2023-03-15T01:11:45.372Z,6.70
2023-03-15T01:14:13.947Z,6.50
2023-03-15T01:16:42.618Z,6.20
2023-03-15T01:19:11.178Z,6.10
2023-03-15T01:21:41.687Z,5.90
2023-03-15T01:24:14.733Z,5.60
2023-03-15T01:26:43.625Z,5.40
2023-03-15T01:29:13.974Z,5.20
2023-03-15T01:31:42.577Z,5.10
2023-03-15T01:34:11.744Z,5.00
2023-03-15T01:36:41.750Z,4.90
2023-03-15T01:39:10.415Z,4.70
2023-03-15T01:41:39.209Z,4.60
2023-03-15T01:44:10.836Z,4.60
2023-03-15T01:46:39.421Z,4.40
2023-03-15T01:49:10.059Z,4.30
2023-03-15T01:51:44.438Z,4.20
2023-03-15T01:54:18.224Z,4.20
2023-03-15T01:56:54.005Z,4.30
2023-03-15T01:59:27.172Z,4.30
2023-03-15T02:01:56.533Z,4.30
2023-03-15T02:04:31.678Z,4.30
2023-03-15T02:07:03.929Z,4.30
2023-03-15T02:09:43.265Z,4.20
2023-03-15T02:12:12.750Z,4.10
2023-03-15T02:14:42.551Z,4.00
2023-03-15T02:17:18.682Z,4.00
2023-03-15T02:19:55.973Z,3.90
2023-03-15T02:22:38.035Z,3.90
2023-03-15T02:25:18.232Z,3.90
2023-03-15T02:27:49.547Z,3.90
2023-03-15T02:30:21.075Z,4.00
2023-03-15T02:32:50.120Z,3.90
2023-03-15T02:35:25.994Z,4.00
2023-03-15T02:37:59.658Z,4.00
2023-03-15T02:40:30.299Z,4.00
2023-03-15T02:43:06.152Z,4.00
2023-03-15T02:45:37.227Z,4.00
2023-03-15T02:48:08.056Z,4.00
2023-03-15T02:50:36.837Z,4.00
2023-03-15T02:53:06.003Z,4.00
2023-03-15T02:55:34.723Z,4.00
2023-03-15T02:58:04.751Z,4.00
2023-03-15T03:00:33.299Z,4.00
2023-03-15T03:03:01.897Z,4.00
2023-03-15T03:05:30.774Z,4.00
2023-03-15T03:07:59.435Z,4.00
2023-03-15T03:10:29.289Z,3.90
2023-03-15T03:12:58.996Z,3.90
2023-03-15T03:15:29.121Z,3.90
2023-03-15T03:17:57.714Z,3.90
2023-03-15T03:20:27.424Z,3.90
2023-03-15T03:22:56.916Z,4.00
2023-03-15T03:25:27.527Z,4.00
2023-03-15T03:27:57.575Z,4.00
2023-03-15T03:30:26.213Z,4.00
2023-03-15T03:32:56.404Z,4.00
2023-03-15T03:35:25.872Z,4.00
2023-03-15T03:37:55.202Z,4.00
2023-03-15T03:40:24.681Z,4.00
2023-03-15T03:42:53.177Z,4.00
2023-03-15T03:45:21.819Z,4.00
2023-03-15T03:47:51.884Z,4.00
2023-03-15T03:50:22.445Z,4.10
2023-03-15T03:52:51.109Z,4.10
2023-03-15T03:55:20.558Z,4.10
2023-03-15T03:57:51.212Z,4.10
2023-03-15T04:00:22.437Z,4.10
2023-03-15T04:02:55.749Z,3.80
2023-03-15T04:05:25.879Z,4.10
2023-03-15T04:07:54.558Z,4.10
2023-03-15T04:10:27.175Z,4.10
2023-03-15T04:12:56.601Z,4.10
2023-03-15T04:15:25.682Z,4.10
2023-03-15T04:17:56.426Z,4.20
2023-03-15T04:20:27.970Z,4.10
2023-03-15T04:22:56.480Z,4.10
2023-03-15T04:25:26.959Z,4.20
2023-03-15T04:27:59.938Z,4.20
2023-03-15T04:30:29.016Z,4.20
2023-03-15T04:33:00.182Z,4.20
2023-03-15T04:35:31.981Z,4.20
2023-03-15T04:38:00.640Z,4.20
2023-03-15T04:40:29.418Z,4.20
2023-03-15T04:42:58.456Z,4.20
2023-03-15T04:45:29.079Z,4.20
2023-03-15T04:47:57.648Z,4.20
2023-03-15T04:50:26.620Z,4.20
2023-03-15T04:52:56.779Z,4.30
2023-03-15T04:55:25.448Z,4.30
2023-03-15T04:57:54.035Z,4.30
2023-03-15T05:00:23.471Z,4.30
2023-03-15T05:02:55.153Z,4.30
2023-03-15T05:05:25.329Z,4.30
2023-03-15T05:07:55.451Z,4.20
2023-03-15T05:10:24.015Z,4.20
2023-03-15T05:12:52.670Z,4.30
2023-03-15T05:15:21.256Z,4.30
2023-03-15T05:17:50.111Z,4.30
2023-03-15T05:20:19.256Z,4.30
2023-03-15T05:22:47.868Z,4.30
2023-03-15T05:25:17.927Z,4.40
2023-03-15T05:27:47.364Z,4.30
2023-03-15T05:30:17.140Z,4.30
2023-03-15T05:32:46.019Z,4.40
2023-03-15T05:35:14.931Z,4.40
2023-03-15T05:37:43.768Z,4.40
2023-03-15T05:40:13.486Z,4.50
2023-03-15T05:42:43.746Z,4.40
2023-03-15T05:45:12.913Z,4.50
2023-03-15T05:47:41.421Z,4.50
2023-03-15T05:50:10.946Z,4.40
2023-03-15T05:52:39.870Z,4.40
2023-03-15T05:55:08.858Z,4.40
2023-03-15T05:57:37.430Z,4.30
2023-03-15T06:00:10.560Z,4.30
2023-03-15T06:02:39.158Z,4.30
2023-03-15T06:05:08.424Z,4.40
2023-03-15T06:07:37.174Z,4.40
2023-03-15T06:10:07.019Z,4.40
2023-03-15T06:12:36.631Z,4.40
2023-03-15T06:15:07.482Z,4.40
2023-03-15T06:17:36.283Z,4.40
2023-03-15T06:20:05.288Z,4.40
2023-03-15T06:22:34.252Z,4.50
2023-03-15T06:25:03.782Z,4.50
2023-03-15T06:27:33.515Z,4.60
2023-03-15T06:30:02.334Z,4.60
2023-03-15T06:32:32.668Z,4.60
2023-03-15T06:35:01.195Z,4.70
2023-03-15T06:37:35.456Z,4.80
2023-03-15T06:40:07.415Z,4.90
2023-03-15T06:42:36.479Z,4.90
2023-03-15T06:45:05.825Z,4.90
2023-03-15T06:47:36.300Z,5.00
2023-03-15T06:50:05.178Z,5.00
2023-03-15T06:52:33.708Z,5.20
2023-03-15T06:55:02.451Z,5.30
2023-03-15T06:57:31.162Z,5.40
2023-03-15T06:59:59.677Z,5.50
2023-03-15T07:02:28.368Z,5.50
2023-03-15T07:04:58.388Z,5.60
2023-03-15T07:07:26.925Z,5.80
2023-03-15T07:09:55.464Z,5.90
2023-03-15T07:12:23.977Z,6.00
2023-03-15T07:14:52.705Z,6.00
2023-03-15T07:17:21.607Z,6.00
2023-03-15T07:19:56.680Z,6.00
2023-03-15T07:22:27.239Z,6.00
2023-03-15T07:24:55.851Z,6.10
2023-03-15T07:27:24.371Z,6.10
2023-03-15T07:29:53.009Z,6.00
2023-03-15T07:32:21.547Z,6.00
2023-03-15T07:34:50.089Z,5.90
2023-03-15T07:37:19.013Z,5.90
2023-03-15T07:39:48.983Z,5.80
2023-03-15T07:42:17.630Z,5.70
2023-03-15T07:44:46.358Z,5.60
2023-03-15T07:47:15.007Z,5.50
2023-03-15T07:49:43.648Z,5.50
2023-03-15T07:52:12.651Z,5.40
2023-03-15T07:54:41.194Z,5.30
2023-03-15T07:57:11.870Z,5.20
2023-03-15T07:59:40.595Z,5.10
2023-03-15T08:02:11.319Z,5.10
2023-03-15T08:04:41.428Z,5.00
2023-03-15T08:07:10.180Z,5.00
2023-03-15T08:09:39.977Z,5.10
2023-03-15T08:12:10.557Z,5.10
2023-03-15T08:14:39.036Z,5.20
2023-03-15T08:18:00.507Z,5.30
2023-03-15T08:20:29.970Z,5.40
2023-03-15T08:22:59.385Z,5.50
2023-03-15T08:25:28.134Z,5.70
2023-03-15T08:27:58.101Z,5.70
2023-03-15T08:30:26.831Z,5.90
2023-03-15T08:32:57.022Z,6.00
2023-03-15T08:35:26.014Z,6.10
2023-03-15T08:37:54.569Z,6.10
2023-03-15T08:40:26.036Z,6.10
2023-03-15T08:42:55.433Z,6.10
2023-03-15T08:45:26.386Z,6.10
2023-03-15T08:47:57.072Z,6.00
2023-03-15T08:50:26.107Z,6.00
2023-03-15T08:52:54.762Z,6.00
2023-03-15T08:55:23.501Z,6.00
2023-03-15T08:57:52.178Z,6.00
2023-03-15T09:00:23.205Z,6.20
2023-03-15T09:02:53.824Z,6.50
2023-03-15T09:05:24.452Z,6.60
2023-03-15T09:07:53.945Z,6.80
2023-03-15T09:10:22.833Z,6.70
2023-03-15T09:12:54.835Z,6.80
2023-03-15T09:15:23.451Z,6.90
2023-03-15T09:17:53.671Z,6.90
2023-03-15T09:20:28.420Z,7.10
2023-03-15T09:22:58.543Z,7.30
2023-03-15T09:25:28.308Z,7.50
2023-03-15T09:27:57.469Z,7.70
2023-03-15T09:30:26.215Z,7.90
2023-03-15T09:32:58.752Z,7.70
2023-03-15T09:35:27.774Z,7.70
2023-03-15T09:38:07.162Z,7.70
2023-03-15T09:40:40.162Z,7.70
2023-03-15T09:43:26.998Z,7.40
2023-03-15T09:46:07.658Z,7.40
2023-03-15T09:48:43.462Z,7.40
2023-03-15T09:51:16.539Z,7.30
2023-03-15T09:53:52.218Z,7.80
2023-03-15T09:56:26.578Z,7.80
2023-03-15T09:58:59.420Z,7.80
2023-03-15T10:01:32.686Z,7.80
2023-03-15T10:04:07.992Z,7.50
2023-03-15T10:06:39.052Z,7.30
2023-03-15T10:09:17.609Z,7.00
2023-03-15T10:11:54.989Z,6.90
2023-03-15T10:14:34.118Z,6.80
2023-03-15T10:17:07.130Z,6.60
2023-03-15T10:19:46.132Z,6.40
2023-03-15T10:22:22.841Z,6.30
2023-03-15T10:24:54.982Z,6.20
2023-03-15T10:27:27.353Z,6.20
2023-03-15T10:29:59.077Z,6.30
2023-03-15T10:32:31.600Z,6.70
2023-03-15T10:35:12.552Z,6.60
2023-03-15T10:37:42.879Z,6.70
2023-03-15T10:40:16.127Z,6.70
2023-03-15T10:42:45.972Z,6.80
2023-03-15T10:45:22.224Z,6.90
2023-03-15T10:48:00.306Z,7.10
2023-03-15T10:50:36.091Z,7.10
2023-03-15T10:53:20.911Z,7.10
2023-03-15T10:55:58.950Z,7.10
2023-03-15T10:58:31.650Z,7.20
2023-03-15T11:01:07.664Z,7.10
2023-03-15T11:03:37.622Z,7.00
2023-03-15T11:06:21.584Z,7.00
2023-03-15T11:08:50.280Z,7.00
2023-03-15T11:11:22.194Z,7.20
2023-03-15T11:14:00.956Z,7.50
2023-03-15T11:16:37.082Z,7.60
2023-03-15T11:19:15.207Z,7.70
2023-03-15T11:21:48.168Z,7.80
2023-03-15T11:24:26.105Z,7.90
2023-03-15T11:26:56.935Z,8.10
2023-03-15T11:29:28.325Z,8.30
2023-03-15T11:31:58.299Z,8.40
2023-03-15T11:34:40.671Z,8.40
2023-03-15T11:37:17.312Z,8.30
2023-03-15T11:40:05.074Z,8.10
2023-03-15T11:42:45.991Z,8.00
2023-03-15T11:45:21.738Z,7.80
2023-03-15T11:47:55.882Z,7.60
2023-03-15T11:50:24.824Z,7.50
2023-03-15T11:52:55.301Z,7.50
2023-03-15T11:55:28.004Z,7.50
2023-03-15T11:57:58.102Z,7.70
2023-03-15T12:00:51.647Z,7.80
2023-03-15T12:03:43.040Z,7.80
2023-03-15T12:06:39.461Z,7.80
2023-03-15T12:09:51.146Z,7.60
2023-03-15T12:12:47.136Z,7.60
2023-03-15T12:15:49.551Z,7.80
2023-03-15T12:18:35.141Z,8.00
2023-03-15T12:21:23.707Z,8.20
2023-03-15T12:24:04.166Z,8.30
2023-03-15T12:26:44.512Z,8.30
2023-03-15T12:29:18.534Z,8.30
2023-03-15T12:31:57.498Z,8.40
2023-03-15T12:34:37.986Z,8.40
2023-03-15T12:41:30.702Z,8.00
2023-03-15T12:44:28.163Z,8.00
2023-03-15T12:47:05.225Z,7.90
2023-03-15T12:49:39.068Z,7.70
2023-03-15T12:52:29.326Z,8.00
2023-03-15T12:55:06.940Z,8.20
2023-03-15T12:57:41.600Z,8.00
2023-03-15T13:00:20.794Z,8.30
2023-03-15T13:02:55.274Z,8.10
2023-03-15T13:05:32.010Z,7.90
2023-03-15T13:08:22.786Z,7.80
2023-03-15T13:11:17.433Z,7.90
2023-03-15T13:14:04.265Z,7.90
2023-03-15T13:16:48.604Z,7.90
2023-03-15T13:19:23.207Z,7.90
2023-03-15T13:22:04.454Z,8.00
2023-03-15T13:24:43.612Z,8.00
2023-03-15T13:27:23.693Z,7.80
2023-03-15T13:29:53.210Z,7.60
2023-03-15T13:32:26.873Z,7.50
2023-03-15T13:34:59.616Z,7.50
2023-03-15T13:37:34.205Z,7.90
2023-03-15T13:40:16.388Z,7.40
2023-03-15T13:42:47.417Z,7.80
2023-03-15T13:45:18.060Z,8.10
2023-03-15T13:47:49.092Z,8.30
2023-03-15T13:50:19.780Z,8.40
2023-03-15T13:52:50.495Z,8.40
2023-03-15T13:55:25.590Z,8.20
2023-03-15T13:57:58.782Z,7.90
2023-03-15T14:00:28.772Z,8.00
2023-03-15T14:03:03.319Z,7.80
2023-03-15T14:05:35.021Z,7.60
2023-03-15T14:08:06.674Z,7.70
2023-03-15T14:10:47.562Z,7.80
2023-03-15T14:13:26.255Z,7.90
2023-03-15T14:15:59.448Z,8.00
2023-03-15T14:18:33.728Z,7.80
2023-03-15T14:21:05.302Z,7.80
2023-03-15T14:23:37.010Z,7.80
2023-03-15T14:26:13.850Z,7.80
2023-03-15T14:28:43.870Z,7.60
2023-03-15T14:31:24.691Z,7.70
2023-03-15T14:34:01.238Z,7.80
2023-03-15T14:36:35.950Z,7.80
2023-03-15T14:39:06.474Z,7.70
2023-03-15T14:41:35.567Z,7.60
2023-03-15T14:44:04.777Z,7.30
2023-03-15T14:46:34.037Z,7.00
2023-03-15T14:49:04.416Z,6.90
2023-03-15T14:51:34.162Z,6.80
2023-03-15T14:54:03.185Z,6.80
2023-03-15T14:56:32.393Z,6.80
2023-03-15T14:59:03.347Z,6.70
2023-03-15T15:01:33.079Z,6.50
2023-03-15T15:04:07.177Z,6.70
2023-03-15T15:06:38.475Z,6.70
2023-03-15T15:09:07.920Z,6.70
2023-03-15T15:11:36.711Z,6.70
2023-03-15T15:14:05.748Z,6.80
2023-03-15T15:16:34.767Z,6.80
2023-03-15T15:19:05.112Z,6.80
2023-03-15T15:21:38.860Z,6.90
2023-03-15T15:24:20.358Z,7.00
2023-03-15T15:26:49.703Z,7.10
2023-03-15T15:29:19.043Z,7.10
2023-03-15T15:31:49.988Z,7.00
2023-03-15T15:34:23.530Z,6.90
2023-03-15T15:36:54.134Z,6.80
2023-03-15T15:39:25.271Z,6.70
2023-03-15T15:41:54.314Z,6.60
2023-03-15T15:44:24.148Z,6.60
2023-03-15T15:46:52.903Z,6.50
2023-03-15T15:49:21.681Z,6.40
2023-03-15T15:51:52.464Z,6.40
2023-03-15T15:54:30.176Z,6.40
2023-03-15T15:57:00.305Z,6.40
2023-03-15T15:59:31.414Z,6.30
2023-03-15T16:02:02.662Z,6.40
2023-03-15T16:04:33.245Z,6.20
2023-03-15T16:07:05.200Z,6.20
2023-03-15T16:09:38.255Z,6.10
2023-03-15T16:12:15.216Z,6.00
2023-03-15T16:14:46.556Z,5.80
2023-03-15T16:17:18.845Z,5.80
2023-03-15T16:19:48.063Z,5.80
2023-03-15T16:22:21.181Z,5.70
2023-03-15T16:24:54.115Z,5.70
2023-03-15T16:27:27.397Z,5.60
2023-03-15T16:29:57.531Z,5.60
2023-03-15T16:32:43.064Z,5.20
2023-03-15T16:35:25.345Z,5.40
2023-03-15T16:37:58.659Z,5.30
2023-03-15T16:40:41.116Z,5.20
2023-03-15T16:43:15.423Z,5.00
2023-03-15T16:45:58.199Z,4.80
2023-03-15T16:48:27.030Z,4.80
2023-03-15T16:50:56.378Z,4.80
2023-03-15T16:53:26.669Z,4.50
2023-03-15T16:55:58.361Z,4.40
2023-03-15T16:58:27.312Z,4.30
2023-03-15T17:00:59.514Z,4.20
2023-03-15T17:03:30.347Z,4.00
2023-03-15T17:05:59.664Z,4.00
2023-03-15T17:08:30.248Z,3.80
2023-03-15T17:10:59.313Z,3.80
2023-03-15T17:13:30.637Z,3.60
2023-03-15T17:16:00.417Z,3.60
2023-03-15T17:18:30.417Z,3.60
2023-03-15T17:21:02.082Z,3.40
2023-03-15T17:23:32.926Z,3.40
2023-03-15T17:26:03.075Z,3.00
2023-03-15T17:28:32.044Z,3.30
2023-03-15T17:31:23.309Z,3.10
2023-03-15T17:33:55.496Z,2.90
2023-03-15T17:36:26.770Z,2.80
2023-03-15T17:38:57.499Z,2.70
2023-03-15T17:41:37.589Z,2.50
2023-03-15T17:44:13.564Z,2.50
2023-03-15T17:46:43.273Z,2.40
2023-03-15T17:49:14.678Z,2.30
2023-03-15T17:51:48.458Z,2.20
2023-03-15T17:54:26.087Z,2.00
2023-03-15T17:56:57.372Z,1.90
2023-03-15T17:59:26.543Z,1.80
2023-03-15T18:01:55.925Z,1.80
2023-03-15T18:04:25.245Z,1.80
2023-03-15T18:06:56.653Z,1.80
2023-03-15T18:09:32.690Z,1.70
2023-03-15T18:12:03.639Z,1.60
2023-03-15T18:14:37.668Z,1.60
2023-03-15T18:17:07.031Z,1.60
2023-03-15T18:19:39.226Z,1.60
2023-03-15T18:22:08.424Z,1.50
2023-03-15T18:24:39.085Z,1.40
2023-03-15T18:27:08.301Z,1.30
2023-03-15T18:29:37.903Z,1.40
2023-03-15T18:32:28.417Z,1.20
2023-03-15T18:34:57.644Z,1.10
2023-03-15T18:37:26.732Z,1.10
2023-03-15T18:39:57.422Z,1.00
2023-03-15T18:42:30.043Z,1.10
2023-03-15T18:45:03.861Z,1.00
2023-03-15T18:47:32.743Z,1.00
2023-03-15T18:50:10.128Z,0.90
2023-03-15T18:52:39.959Z,0.80
2023-03-15T18:55:53.254Z,0.80
2023-03-15T18:58:35.527Z,0.70
2023-03-15T19:01:12.376Z,0.70
2023-03-15T19:03:46.636Z,0.30
2023-03-15T19:06:16.532Z,0.70
2023-03-15T19:08:45.521Z,0.70
2023-03-15T19:11:15.876Z,0.70
2023-03-15T19:13:51.274Z,0.70
2023-03-15T19:16:20.975Z,0.70
2023-03-15T19:18:53.739Z,0.70
2023-03-15T19:21:22.441Z,0.70
2023-03-15T19:23:52.643Z,0.60
2023-03-15T19:26:22.999Z,0.60
2023-03-15T19:28:51.589Z,0.50
2023-03-15T19:31:20.390Z,0.60
2023-03-15T19:33:49.186Z,0.50
2023-03-15T19:36:17.992Z,0.50
2023-03-15T19:38:46.964Z,0.40
2023-03-15T19:41:15.966Z,0.40
2023-03-15T19:43:46.847Z,0.30
2023-03-15T19:46:17.736Z,0.30
2023-03-15T19:48:46.281Z,0.20
2023-03-15T19:51:16.737Z,0.30
2023-03-15T19:53:45.410Z,0.30
2023-03-15T19:56:14.336Z,0.30
2023-03-15T19:58:43.010Z,0.30
2023-03-15T20:01:13.275Z,0.30
2023-03-15T20:03:41.995Z,0.30
2023-03-15T20:06:12.773Z,0.30
2023-03-15T20:08:41.974Z,0.30
2023-03-15T20:11:15.023Z,0.40
2023-03-15T20:13:44.228Z,0.40
2023-03-15T20:16:16.177Z,0.40
2023-03-15T20:18:44.837Z,0.40
2023-03-15T20:21:14.923Z,0.40
2023-03-15T20:23:43.739Z,0.40
2023-03-15T20:26:14.575Z,0.40
2023-03-15T20:28:44.549Z,0.40
2023-03-15T20:31:17.392Z,0.40
2023-03-15T20:33:48.952Z,0.50
2023-03-15T20:36:18.232Z,0.50
2023-03-15T20:38:47.508Z,0.60
2023-03-15T20:41:18.870Z,0.70
2023-03-15T20:43:47.761Z,0.80
2023-03-15T20:46:19.450Z,0.80
2023-03-15T20:48:48.207Z,0.80
2023-03-15T20:51:16.826Z,0.80
2023-03-15T20:53:45.657Z,0.80
2023-03-15T20:56:14.411Z,0.80
2023-03-15T20:58:43.047Z,0.70
2023-03-15T21:01:15.168Z,0.70
2023-03-15T21:03:46.405Z,0.70
2023-03-15T21:06:15.239Z,0.60
2023-03-15T21:08:44.345Z,0.60
2023-03-15T21:11:12.994Z,0.60
2023-03-15T21:13:41.548Z,0.60
2023-03-15T21:16:10.156Z,0.60
2023-03-15T21:18:38.838Z,0.60
2023-03-15T21:21:09.388Z,0.60
2023-03-15T21:23:38.292Z,0.60
2023-03-15T21:26:09.820Z,0.70
2023-03-15T21:28:39.097Z,0.70
2023-03-15T21:31:08.922Z,0.80
2023-03-15T21:33:37.765Z,0.90
2023-03-15T21:36:06.680Z,0.90
2023-03-15T21:38:36.593Z,1.00
2023-03-15T21:41:11.640Z,1.10
2023-03-15T21:43:40.433Z,1.20
2023-03-15T21:46:11.142Z,1.10
2023-03-15T21:48:39.940Z,1.20
2023-03-15T21:51:08.978Z,1.30
2023-03-15T21:53:39.120Z,1.30
2023-03-15T21:56:08.555Z,1.30
2023-03-15T21:58:37.152Z,1.30
2023-03-15T22:01:13.211Z,1.40
2023-03-15T22:03:44.405Z,1.40
2023-03-15T22:06:13.803Z,1.40
2023-03-15T22:08:43.891Z,1.50
2023-03-15T22:11:12.523Z,1.50
2023-03-15T22:13:42.079Z,1.60
2023-03-15T22:16:11.539Z,1.60
2023-03-15T22:18:40.200Z,1.50
2023-03-15T22:21:08.972Z,1.50
2023-03-15T22:23:37.570Z,1.40
2023-03-15T22:26:08.212Z,1.30
2023-03-15T22:28:36.831Z,1.20
2023-03-15T22:31:11.165Z,1.20
2023-03-15T22:33:43.367Z,1.20
2023-03-15T22:36:12.471Z,1.20
2023-03-15T22:38:40.992Z,1.10
2023-03-15T22:41:14.210Z,1.10
2023-03-15T22:43:43.135Z,1.20
2023-03-15T22:46:11.903Z,1.20
2023-03-15T22:48:40.585Z,1.30
2023-03-15T22:51:10.927Z,1.20
2023-03-15T22:53:39.572Z,1.10
2023-03-15T22:56:08.280Z,1.20
2023-03-15T22:58:38.433Z,1.10
2023-03-15T23:01:07.186Z,1.00
2023-03-15T23:03:35.799Z,1.00
2023-03-15T23:06:04.491Z,0.90
2023-03-15T23:08:33.333Z,0.90
2023-03-15T23:11:02.153Z,0.90
2023-03-15T23:13:31.332Z,0.90
2023-03-15T23:16:04.176Z,0.80
2023-03-15T23:18:34.461Z,0.80
2023-03-15T23:21:08.036Z,0.80
2023-03-15T23:23:37.112Z,0.70
2023-03-15T23:26:06.081Z,0.70
2023-03-15T23:28:35.044Z,0.60
2023-03-15T23:31:07.530Z,0.60
2023-03-15T23:33:36.223Z,0.60
2023-03-15T23:36:07.102Z,0.50
2023-03-15T23:38:35.852Z,0.50
2023-03-15T23:41:05.161Z,0.40
2023-03-15T23:43:34.614Z,0.30
2023-03-15T23:46:06.460Z,0.30
2023-03-15T23:48:36.327Z,0.20
2023-03-15T23:51:05.219Z,0.20
2023-03-15T23:53:34.106Z,0.10
2023-03-15T23:56:03.055Z,0.20
2023-03-15T23:58:31.630Z,0.10
